Terminal Aerodrome Forecast
Issued by NWS

Home | Current Version | Previous Version | Text Only | Print | Product List | Glossary On
Versions: 1 2 3 4 5 6 7 8 9 10 11 12 13 14 15 16 17 18 19 20
000
FTUS43 KOAX 271003 AAA
TAFBFF
TAF AMD
KBFF 271003Z 2710/2806 12005KT P6SM VCSH OVC035
     FM271200 12010KT 4SM BR OVC025
     FM271800 02008KT P6SM SCT030 BKN050=

USA.gov is the U.S. government's official web portal to all federal, state and local government web resources and services.